sensor_id;sensor_type;location;lat;lon;timestamp;P1;durP1;ratioP1;P2;durP2;ratioP2
59788;SDS011;47353;51.614;5.530;2022-08-26T00:00:46;20.65;;;9.98;;
59788;SDS011;47353;51.614;5.530;2022-08-26T00:03:13;16.30;;;9.52;;
59788;SDS011;47353;51.614;5.530;2022-08-26T00:05:42;11.73;;;8.88;;
59788;SDS011;47353;51.614;5.530;2022-08-26T00:08:10;12.52;;;8.20;;
59788;SDS011;47353;51.614;5.530;2022-08-26T00:10:38;13.52;;;7.20;;
59788;SDS011;47353;51.614;5.530;2022-08-26T00:13:05;13.82;;;7.25;;
59788;SDS011;47353;51.614;5.530;2022-08-26T00:15:31;12.52;;;6.57;;
59788;SDS011;47353;51.614;5.530;2022-08-26T00:17:57;12.57;;;6.40;;
59788;SDS011;47353;51.614;5.530;2022-08-26T00:20:24;10.70;;;5.90;;
59788;SDS011;47353;51.614;5.530;2022-08-26T00:22:52;11.07;;;5.50;;
59788;SDS011;47353;51.614;5.530;2022-08-26T00:25:18;9.30;;;5.30;;
59788;SDS011;47353;51.614;5.530;2022-08-26T00:27:44;10.52;;;5.55;;
59788;SDS011;47353;51.614;5.530;2022-08-26T00:30:22;9.00;;;5.13;;
59788;SDS011;47353;51.614;5.530;2022-08-26T00:32:49;10.73;;;4.70;;
59788;SDS011;47353;51.614;5.530;2022-08-26T00:35:15;7.97;;;4.65;;
59788;SDS011;47353;51.614;5.530;2022-08-26T00:37:41;8.45;;;4.85;;
59788;SDS011;47353;51.614;5.530;2022-08-26T00:40:09;9.43;;;4.38;;
59788;SDS011;47353;51.614;5.530;2022-08-26T00:42:38;10.20;;;4.50;;
59788;SDS011;47353;51.614;5.530;2022-08-26T00:45:03;11.15;;;4.65;;
59788;SDS011;47353;51.614;5.530;2022-08-26T00:47:33;8.90;;;4.30;;
59788;SDS011;47353;51.614;5.530;2022-08-26T00:50:09;7.90;;;4.40;;
59788;SDS011;47353;51.614;5.530;2022-08-26T00:52:38;10.05;;;4.30;;
59788;SDS011;47353;51.614;5.530;2022-08-26T00:55:12;10.05;;;4.40;;
59788;SDS011;47353;51.614;5.530;2022-08-26T00:57:42;9.00;;;4.03;;
59788;SDS011;47353;51.614;5.530;2022-08-26T01:00:10;9.05;;;4.20;;
59788;SDS011;47353;51.614;5.530;2022-08-26T01:02:38;9.98;;;4.40;;
59788;SDS011;47353;51.614;5.530;2022-08-26T01:05:06;10.82;;;4.70;;
59788;SDS011;47353;51.614;5.530;2022-08-26T01:07:34;11.30;;;4.80;;
59788;SDS011;47353;51.614;5.530;2022-08-26T01:10:00;7.72;;;4.38;;
59788;SDS011;47353;51.614;5.530;2022-08-26T01:12:31;10.52;;;4.32;;
59788;SDS011;47353;51.614;5.530;2022-08-26T01:15:02;10.65;;;4.38;;
59788;SDS011;47353;51.614;5.530;2022-08-26T01:17:27;11.63;;;4.95;;
59788;SDS011;47353;51.614;5.530;2022-08-26T01:19:55;8.68;;;4.50;;
59788;SDS011;47353;51.614;5.530;2022-08-26T01:22:29;8.57;;;4.43;;
59788;SDS011;47353;51.614;5.530;2022-08-26T01:25:02;13.90;;;4.93;;
59788;SDS011;47353;51.614;5.530;2022-08-26T01:27:29;9.77;;;4.10;;
59788;SDS011;47353;51.614;5.530;2022-08-26T01:29:56;8.32;;;4.22;;
59788;SDS011;47353;51.614;5.530;2022-08-26T01:32:22;11.98;;;4.88;;
59788;SDS011;47353;51.614;5.530;2022-08-26T01:34:49;13.60;;;4.68;;
59788;SDS011;47353;51.614;5.530;2022-08-26T01:37:21;10.90;;;4.93;;
59788;SDS011;47353;51.614;5.530;2022-08-26T01:42:16;10.27;;;4.68;;
59788;SDS011;47353;51.614;5.530;2022-08-26T01:44:57;9.45;;;4.30;;
59788;SDS011;47353;51.614;5.530;2022-08-26T01:47:28;8.02;;;4.45;;
59788;SDS011;47353;51.614;5.530;2022-08-26T01:49:56;11.00;;;4.50;;
59788;SDS011;47353;51.614;5.530;2022-08-26T01:52:26;8.25;;;4.70;;
59788;SDS011;47353;51.614;5.530;2022-08-26T01:54:55;10.88;;;4.45;;
59788;SDS011;47353;51.614;5.530;2022-08-26T01:57:22;9.20;;;4.65;;
59788;SDS011;47353;51.614;5.530;2022-08-26T01:59:49;9.52;;;4.30;;
59788;SDS011;47353;51.614;5.530;2022-08-26T02:02:16;10.27;;;4.70;;
59788;SDS011;47353;51.614;5.530;2022-08-26T02:05:03;11.43;;;4.95;;
59788;SDS011;47353;51.614;5.530;2022-08-26T02:07:29;9.80;;;4.10;;
59788;SDS011;47353;51.614;5.530;2022-08-26T02:09:56;9.05;;;4.53;;
59788;SDS011;47353;51.614;5.530;2022-08-26T02:12:22;8.75;;;4.35;;
59788;SDS011;47353;51.614;5.530;2022-08-26T02:14:53;8.75;;;4.10;;
59788;SDS011;47353;51.614;5.530;2022-08-26T02:17:24;10.18;;;4.07;;
59788;SDS011;47353;51.614;5.530;2022-08-26T02:19:54;8.57;;;3.83;;
59788;SDS011;47353;51.614;5.530;2022-08-26T02:22:21;7.00;;;3.78;;
59788;SDS011;47353;51.614;5.530;2022-08-26T02:24:48;12.68;;;4.32;;
59788;SDS011;47353;51.614;5.530;2022-08-26T02:27:16;10.23;;;4.20;;
59788;SDS011;47353;51.614;5.530;2022-08-26T02:29:46;7.85;;;3.90;;
59788;SDS011;47353;51.614;5.530;2022-08-26T02:32:16;8.93;;;4.07;;
59788;SDS011;47353;51.614;5.530;2022-08-26T02:34:41;8.30;;;4.20;;
59788;SDS011;47353;51.614;5.530;2022-08-26T02:37:08;10.80;;;4.15;;
59788;SDS011;47353;51.614;5.530;2022-08-26T02:39:35;8.05;;;4.50;;
59788;SDS011;47353;51.614;5.530;2022-08-26T02:42:02;13.85;;;5.18;;
59788;SDS011;47353;51.614;5.530;2022-08-26T02:44:29;12.18;;;4.10;;
59788;SDS011;47353;51.614;5.530;2022-08-26T02:46:55;7.28;;;3.55;;
59788;SDS011;47353;51.614;5.530;2022-08-26T02:49:21;9.00;;;3.70;;
59788;SDS011;47353;51.614;5.530;2022-08-26T02:51:47;9.98;;;3.50;;
59788;SDS011;47353;51.614;5.530;2022-08-26T02:54:14;8.80;;;3.08;;
59788;SDS011;47353;51.614;5.530;2022-08-26T02:56:40;8.25;;;3.20;;
59788;SDS011;47353;51.614;5.530;2022-08-26T02:59:07;6.13;;;2.90;;
59788;SDS011;47353;51.614;5.530;2022-08-26T03:01:33;8.48;;;2.75;;
59788;SDS011;47353;51.614;5.530;2022-08-26T03:03:59;9.90;;;2.80;;
59788;SDS011;47353;51.614;5.530;2022-08-26T03:06:26;7.20;;;2.95;;
59788;SDS011;47353;51.614;5.530;2022-08-26T03:08:52;10.00;;;2.70;;
59788;SDS011;47353;51.614;5.530;2022-08-26T03:11:18;6.60;;;2.90;;
59788;SDS011;47353;51.614;5.530;2022-08-26T03:13:44;7.88;;;3.25;;
59788;SDS011;47353;51.614;5.530;2022-08-26T03:16:10;14.18;;;3.65;;
59788;SDS011;47353;51.614;5.530;2022-08-26T03:18:37;8.05;;;3.22;;
59788;SDS011;47353;51.614;5.530;2022-08-26T03:21:04;9.38;;;3.58;;
59788;SDS011;47353;51.614;5.530;2022-08-26T03:23:31;10.40;;;3.70;;
59788;SDS011;47353;51.614;5.530;2022-08-26T03:25:57;6.90;;;3.15;;
59788;SDS011;47353;51.614;5.530;2022-08-26T03:28:22;7.65;;;3.10;;
59788;SDS011;47353;51.614;5.530;2022-08-26T03:30:47;9.75;;;3.38;;
59788;SDS011;47353;51.614;5.530;2022-08-26T03:33:13;7.22;;;2.80;;
59788;SDS011;47353;51.614;5.530;2022-08-26T03:35:39;7.20;;;2.90;;
59788;SDS011;47353;51.614;5.530;2022-08-26T03:38:07;8.38;;;3.15;;
59788;SDS011;47353;51.614;5.530;2022-08-26T03:40:34;10.80;;;3.47;;
59788;SDS011;47353;51.614;5.530;2022-08-26T03:43:01;6.18;;;2.80;;
59788;SDS011;47353;51.614;5.530;2022-08-26T03:45:28;7.25;;;3.05;;
59788;SDS011;47353;51.614;5.530;2022-08-26T03:47:54;8.65;;;2.92;;
59788;SDS011;47353;51.614;5.530;2022-08-26T03:50:20;7.55;;;2.70;;
59788;SDS011;47353;51.614;5.530;2022-08-26T03:52:47;6.97;;;2.92;;
59788;SDS011;47353;51.614;5.530;2022-08-26T03:55:13;6.97;;;2.70;;
59788;SDS011;47353;51.614;5.530;2022-08-26T03:57:40;6.93;;;2.72;;
59788;SDS011;47353;51.614;5.530;2022-08-26T04:00:06;7.38;;;2.75;;
59788;SDS011;47353;51.614;5.530;2022-08-26T04:02:35;7.38;;;2.40;;
59788;SDS011;47353;51.614;5.530;2022-08-26T04:05:01;8.35;;;2.83;;
59788;SDS011;47353;51.614;5.530;2022-08-26T04:07:26;6.97;;;2.50;;
59788;SDS011;47353;51.614;5.530;2022-08-26T04:09:55;8.38;;;2.63;;
59788;SDS011;47353;51.614;5.530;2022-08-26T04:12:22;8.75;;;2.78;;
59788;SDS011;47353;51.614;5.530;2022-08-26T04:14:49;6.28;;;2.50;;
59788;SDS011;47353;51.614;5.530;2022-08-26T04:17:15;8.38;;;2.78;;
59788;SDS011;47353;51.614;5.530;2022-08-26T04:19:40;8.15;;;2.35;;
59788;SDS011;47353;51.614;5.530;2022-08-26T04:22:06;7.47;;;2.97;;
59788;SDS011;47353;51.614;5.530;2022-08-26T04:24:33;23.02;;;2.72;;
59788;SDS011;47353;51.614;5.530;2022-08-26T04:26:58;7.53;;;2.50;;
59788;SDS011;47353;51.614;5.530;2022-08-26T04:29:27;7.78;;;2.53;;
59788;SDS011;47353;51.614;5.530;2022-08-26T04:31:53;9.07;;;2.67;;
59788;SDS011;47353;51.614;5.530;2022-08-26T04:34:20;8.65;;;2.20;;
59788;SDS011;47353;51.614;5.530;2022-08-26T04:36:46;7.10;;;2.20;;
59788;SDS011;47353;51.614;5.530;2022-08-26T04:39:12;7.20;;;2.40;;
59788;SDS011;47353;51.614;5.530;2022-08-26T04:41:40;8.20;;;2.28;;
59788;SDS011;47353;51.614;5.530;2022-08-26T04:44:07;6.35;;;2.00;;
59788;SDS011;47353;51.614;5.530;2022-08-26T04:46:33;8.60;;;2.40;;
59788;SDS011;47353;51.614;5.530;2022-08-26T04:48:59;8.13;;;2.25;;
59788;SDS011;47353;51.614;5.530;2022-08-26T04:51:24;7.72;;;2.15;;
59788;SDS011;47353;51.614;5.530;2022-08-26T04:53:56;10.20;;;2.25;;
59788;SDS011;47353;51.614;5.530;2022-08-26T04:56:23;6.95;;;2.05;;
59788;SDS011;47353;51.614;5.530;2022-08-26T04:58:50;7.10;;;2.08;;
59788;SDS011;47353;51.614;5.530;2022-08-26T05:01:15;6.35;;;2.35;;
59788;SDS011;47353;51.614;5.530;2022-08-26T05:03:40;6.55;;;1.95;;
59788;SDS011;47353;51.614;5.530;2022-08-26T05:06:06;6.32;;;2.08;;
59788;SDS011;47353;51.614;5.530;2022-08-26T05:08:31;7.40;;;2.25;;
59788;SDS011;47353;51.614;5.530;2022-08-26T05:10:57;8.10;;;2.15;;
59788;SDS011;47353;51.614;5.530;2022-08-26T05:13:23;6.18;;;1.75;;
59788;SDS011;47353;51.614;5.530;2022-08-26T05:15:50;6.95;;;2.08;;
59788;SDS011;47353;51.614;5.530;2022-08-26T05:18:16;4.28;;;2.08;;
59788;SDS011;47353;51.614;5.530;2022-08-26T05:20:46;6.30;;;1.85;;
59788;SDS011;47353;51.614;5.530;2022-08-26T05:23:14;6.43;;;1.70;;
59788;SDS011;47353;51.614;5.530;2022-08-26T05:25:41;6.90;;;2.13;;
59788;SDS011;47353;51.614;5.530;2022-08-26T05:28:09;5.35;;;2.15;;
59788;SDS011;47353;51.614;5.530;2022-08-26T05:30:36;6.10;;;2.08;;
59788;SDS011;47353;51.614;5.530;2022-08-26T05:33:02;8.43;;;2.60;;
59788;SDS011;47353;51.614;5.530;2022-08-26T05:35:29;6.38;;;2.50;;
59788;SDS011;47353;51.614;5.530;2022-08-26T05:38:01;6.65;;;2.28;;
59788;SDS011;47353;51.614;5.530;2022-08-26T05:40:32;5.90;;;2.00;;
59788;SDS011;47353;51.614;5.530;2022-08-26T05:42:59;5.75;;;1.75;;
59788;SDS011;47353;51.614;5.530;2022-08-26T05:45:25;7.15;;;2.15;;
59788;SDS011;47353;51.614;5.530;2022-08-26T05:47:50;7.88;;;2.17;;
59788;SDS011;47353;51.614;5.530;2022-08-26T05:50:16;6.65;;;1.90;;
59788;SDS011;47353;51.614;5.530;2022-08-26T05:52:46;11.40;;;2.30;;
59788;SDS011;47353;51.614;5.530;2022-08-26T05:55:15;6.82;;;2.20;;
59788;SDS011;47353;51.614;5.530;2022-08-26T05:57:41;7.25;;;2.10;;
59788;SDS011;47353;51.614;5.530;2022-08-26T06:00:06;6.82;;;2.30;;
59788;SDS011;47353;51.614;5.530;2022-08-26T06:02:34;6.10;;;1.88;;
59788;SDS011;47353;51.614;5.530;2022-08-26T06:04:59;5.82;;;1.88;;
59788;SDS011;47353;51.614;5.530;2022-08-26T06:07:25;5.40;;;1.80;;
59788;SDS011;47353;51.614;5.530;2022-08-26T06:10:11;8.15;;;2.20;;
59788;SDS011;47353;51.614;5.530;2022-08-26T06:12:37;6.05;;;2.00;;
59788;SDS011;47353;51.614;5.530;2022-08-26T06:15:03;6.68;;;1.92;;
59788;SDS011;47353;51.614;5.530;2022-08-26T06:17:29;6.60;;;1.95;;
59788;SDS011;47353;51.614;5.530;2022-08-26T06:19:55;10.50;;;1.80;;
59788;SDS011;47353;51.614;5.530;2022-08-26T06:22:20;9.05;;;2.10;;
59788;SDS011;47353;51.614;5.530;2022-08-26T06:25:04;7.22;;;2.08;;
59788;SDS011;47353;51.614;5.530;2022-08-26T06:27:49;6.18;;;1.60;;
59788;SDS011;47353;51.614;5.530;2022-08-26T06:30:14;9.38;;;1.92;;
59788;SDS011;47353;51.614;5.530;2022-08-26T06:32:40;10.48;;;1.65;;
59788;SDS011;47353;51.614;5.530;2022-08-26T06:35:05;6.93;;;1.60;;
59788;SDS011;47353;51.614;5.530;2022-08-26T06:37:31;9.73;;;1.95;;
59788;SDS011;47353;51.614;5.530;2022-08-26T06:39:56;7.28;;;1.52;;
59788;SDS011;47353;51.614;5.530;2022-08-26T06:42:22;6.10;;;1.50;;
59788;SDS011;47353;51.614;5.530;2022-08-26T06:44:47;4.72;;;1.42;;
59788;SDS011;47353;51.614;5.530;2022-08-26T06:47:12;4.78;;;1.60;;
59788;SDS011;47353;51.614;5.530;2022-08-26T06:49:38;7.75;;;1.40;;
59788;SDS011;47353;51.614;5.530;2022-08-26T06:52:03;5.80;;;1.45;;
59788;SDS011;47353;51.614;5.530;2022-08-26T06:54:29;7.50;;;1.70;;
59788;SDS011;47353;51.614;5.530;2022-08-26T06:56:55;5.20;;;1.67;;
59788;SDS011;47353;51.614;5.530;2022-08-26T06:59:21;5.82;;;1.65;;
59788;SDS011;47353;51.614;5.530;2022-08-26T07:01:47;5.50;;;1.40;;
59788;SDS011;47353;51.614;5.530;2022-08-26T07:04:13;6.15;;;2.20;;
59788;SDS011;47353;51.614;5.530;2022-08-26T07:06:40;8.23;;;2.38;;
59788;SDS011;47353;51.614;5.530;2022-08-26T07:09:11;6.20;;;1.80;;
59788;SDS011;47353;51.614;5.530;2022-08-26T07:11:37;8.65;;;1.63;;
59788;SDS011;47353;51.614;5.530;2022-08-26T07:14:03;3.83;;;1.50;;
59788;SDS011;47353;51.614;5.530;2022-08-26T07:16:30;12.60;;;2.88;;
59788;SDS011;47353;51.614;5.530;2022-08-26T07:18:56;17.85;;;3.85;;
59788;SDS011;47353;51.614;5.530;2022-08-26T07:21:21;7.68;;;1.90;;
59788;SDS011;47353;51.614;5.530;2022-08-26T07:23:48;5.82;;;1.63;;
59788;SDS011;47353;51.614;5.530;2022-08-26T07:26:16;4.03;;;1.30;;
59788;SDS011;47353;51.614;5.530;2022-08-26T07:28:44;6.82;;;1.40;;
59788;SDS011;47353;51.614;5.530;2022-08-26T07:31:12;5.20;;;1.50;;
59788;SDS011;47353;51.614;5.530;2022-08-26T07:33:40;5.45;;;1.40;;
59788;SDS011;47353;51.614;5.530;2022-08-26T07:36:07;5.18;;;1.50;;
59788;SDS011;47353;51.614;5.530;2022-08-26T07:38:34;7.10;;;1.75;;
59788;SDS011;47353;51.614;5.530;2022-08-26T07:41:00;12.10;;;2.25;;
59788;SDS011;47353;51.614;5.530;2022-08-26T07:43:26;8.20;;;1.48;;
59788;SDS011;47353;51.614;5.530;2022-08-26T07:45:52;6.82;;;1.38;;
59788;SDS011;47353;51.614;5.530;2022-08-26T07:48:18;5.70;;;1.95;;
59788;SDS011;47353;51.614;5.530;2022-08-26T07:50:43;6.20;;;1.80;;
59788;SDS011;47353;51.614;5.530;2022-08-26T07:53:10;6.15;;;1.70;;
59788;SDS011;47353;51.614;5.530;2022-08-26T07:55:36;9.32;;;3.50;;
59788;SDS011;47353;51.614;5.530;2022-08-26T07:58:02;8.13;;;2.10;;
59788;SDS011;47353;51.614;5.530;2022-08-26T08:00:29;10.38;;;1.80;;
59788;SDS011;47353;51.614;5.530;2022-08-26T08:02:57;6.90;;;1.92;;
59788;SDS011;47353;51.614;5.530;2022-08-26T08:05:23;7.22;;;1.40;;
59788;SDS011;47353;51.614;5.530;2022-08-26T08:07:49;4.82;;;1.48;;
59788;SDS011;47353;51.614;5.530;2022-08-26T08:10:18;8.23;;;1.48;;
59788;SDS011;47353;51.614;5.530;2022-08-26T08:12:47;3.85;;;1.17;;
59788;SDS011;47353;51.614;5.530;2022-08-26T08:15:13;6.57;;;1.30;;
59788;SDS011;47353;51.614;5.530;2022-08-26T08:17:39;6.68;;;1.50;;
59788;SDS011;47353;51.614;5.530;2022-08-26T08:20:07;7.65;;;1.77;;
59788;SDS011;47353;51.614;5.530;2022-08-26T08:22:33;5.70;;;1.30;;
59788;SDS011;47353;51.614;5.530;2022-08-26T08:24:59;8.77;;;1.42;;
59788;SDS011;47353;51.614;5.530;2022-08-26T08:27:24;4.53;;;1.17;;
59788;SDS011;47353;51.614;5.530;2022-08-26T08:29:51;6.07;;;1.17;;
59788;SDS011;47353;51.614;5.530;2022-08-26T08:32:18;7.40;;;1.13;;
59788;SDS011;47353;51.614;5.530;2022-08-26T08:34:44;5.88;;;1.10;;
59788;SDS011;47353;51.614;5.530;2022-08-26T08:37:09;5.15;;;1.33;;
59788;SDS011;47353;51.614;5.530;2022-08-26T08:39:35;3.70;;;1.00;;
59788;SDS011;47353;51.614;5.530;2022-08-26T08:44:31;7.40;;;1.38;;
59788;SDS011;47353;51.614;5.530;2022-08-26T08:47:02;4.38;;;1.20;;
59788;SDS011;47353;51.614;5.530;2022-08-26T08:49:33;3.50;;;0.82;;
59788;SDS011;47353;51.614;5.530;2022-08-26T08:52:00;6.32;;;1.25;;
59788;SDS011;47353;51.614;5.530;2022-08-26T08:54:30;5.53;;;1.38;;
59788;SDS011;47353;51.614;5.530;2022-08-26T08:59:36;6.55;;;1.42;;
59788;SDS011;47353;51.614;5.530;2022-08-26T09:07:29;7.60;;;1.55;;
59788;SDS011;47353;51.614;5.530;2022-08-26T09:09:58;6.28;;;1.50;;
59788;SDS011;47353;51.614;5.530;2022-08-26T09:12:29;7.32;;;1.70;;
59788;SDS011;47353;51.614;5.530;2022-08-26T09:14:59;4.03;;;1.35;;
59788;SDS011;47353;51.614;5.530;2022-08-26T09:20:08;5.97;;;1.20;;
59788;SDS011;47353;51.614;5.530;2022-08-26T09:22:42;5.13;;;1.00;;
59788;SDS011;47353;51.614;5.530;2022-08-26T09:25:09;6.53;;;1.05;;
59788;SDS011;47353;51.614;5.530;2022-08-26T09:27:46;4.93;;;1.10;;
59788;SDS011;47353;51.614;5.530;2022-08-26T09:30:22;4.72;;;1.40;;
59788;SDS011;47353;51.614;5.530;2022-08-26T09:32:57;9.68;;;1.30;;
59788;SDS011;47353;51.614;5.530;2022-08-26T09:35:25;5.40;;;1.17;;
59788;SDS011;47353;51.614;5.530;2022-08-26T09:37:55;9.43;;;1.02;;
59788;SDS011;47353;51.614;5.530;2022-08-26T09:40:22;6.28;;;1.90;;
59788;SDS011;47353;51.614;5.530;2022-08-26T09:43:05;6.18;;;1.45;;
59788;SDS011;47353;51.614;5.530;2022-08-26T09:45:44;6.63;;;1.63;;
59788;SDS011;47353;51.614;5.530;2022-08-26T09:48:29;6.13;;;1.67;;
59788;SDS011;47353;51.614;5.530;2022-08-26T09:50:58;7.53;;;1.38;;
59788;SDS011;47353;51.614;5.530;2022-08-26T09:53:30;7.88;;;1.38;;
59788;SDS011;47353;51.614;5.530;2022-08-26T09:56:11;10.53;;;1.73;;
59788;SDS011;47353;51.614;5.530;2022-08-26T09:58:48;7.43;;;1.50;;
59788;SDS011;47353;51.614;5.530;2022-08-26T10:01:36;9.75;;;1.75;;
59788;SDS011;47353;51.614;5.530;2022-08-26T10:06:38;8.32;;;1.48;;
59788;SDS011;47353;51.614;5.530;2022-08-26T10:09:07;7.32;;;1.40;;
59788;SDS011;47353;51.614;5.530;2022-08-26T10:11:49;8.27;;;1.60;;
59788;SDS011;47353;51.614;5.530;2022-08-26T10:14:24;8.43;;;1.35;;
59788;SDS011;47353;51.614;5.530;2022-08-26T10:17:02;6.38;;;1.40;;
59788;SDS011;47353;51.614;5.530;2022-08-26T10:19:52;4.72;;;1.10;;
59788;SDS011;47353;51.614;5.530;2022-08-26T10:25:16;8.85;;;2.22;;
59788;SDS011;47353;51.614;5.530;2022-08-26T10:28:02;9.65;;;3.60;;
59788;SDS011;47353;51.614;5.530;2022-08-26T10:30:50;7.03;;;1.67;;
59788;SDS011;47353;51.614;5.530;2022-08-26T10:33:22;6.38;;;1.70;;
59788;SDS011;47353;51.614;5.530;2022-08-26T10:35:55;7.80;;;2.10;;
59788;SDS011;47353;51.614;5.530;2022-08-26T10:38:33;8.00;;;1.60;;
59788;SDS011;47353;51.614;5.530;2022-08-26T10:41:22;6.20;;;1.85;;
59788;SDS011;47353;51.614;5.530;2022-08-26T10:46:22;9.13;;;2.17;;
59788;SDS011;47353;51.614;5.530;2022-08-26T10:48:56;5.72;;;1.63;;
59788;SDS011;47353;51.614;5.530;2022-08-26T10:51:26;7.13;;;2.20;;
59788;SDS011;47353;51.614;5.530;2022-08-26T11:04:58;6.97;;;1.80;;
59788;SDS011;47353;51.614;5.530;2022-08-26T11:07:45;12.10;;;4.38;;
59788;SDS011;47353;51.614;5.530;2022-08-26T11:22:50;9.68;;;6.35;;
59788;SDS011;47353;51.614;5.530;2022-08-26T11:25:23;13.10;;;11.10;;
59788;SDS011;47353;51.614;5.530;2022-08-26T11:27:53;9.77;;;7.38;;
59788;SDS011;47353;51.614;5.530;2022-08-26T11:32:51;10.93;;;5.70;;
59788;SDS011;47353;51.614;5.530;2022-08-26T11:37:46;8.65;;;3.05;;
59788;SDS011;47353;51.614;5.530;2022-08-26T11:40:24;13.60;;;11.07;;
59788;SDS011;47353;51.614;5.530;2022-08-26T11:42:53;9.82;;;8.82;;
59788;SDS011;47353;51.614;5.530;2022-08-26T11:48:13;7.55;;;1.65;;
59788;SDS011;47353;51.614;5.530;2022-08-26T11:53:26;16.92;;;15.32;;
59788;SDS011;47353;51.614;5.530;2022-08-26T11:55:53;13.70;;;9.55;;
59788;SDS011;47353;51.614;5.530;2022-08-26T11:58:20;14.93;;;13.50;;
59788;SDS011;47353;51.614;5.530;2022-08-26T12:03:20;14.85;;;13.45;;
59788;SDS011;47353;51.614;5.530;2022-08-26T12:05:48;22.33;;;20.63;;
59788;SDS011;47353;51.614;5.530;2022-08-26T12:08:17;22.63;;;20.63;;
59788;SDS011;47353;51.614;5.530;2022-08-26T12:11:04;7.35;;;4.88;;
59788;SDS011;47353;51.614;5.530;2022-08-26T12:13:37;23.58;;;21.50;;
59788;SDS011;47353;51.614;5.530;2022-08-26T12:16:03;26.75;;;24.52;;
59788;SDS011;47353;51.614;5.530;2022-08-26T12:18:30;27.50;;;25.42;;
59788;SDS011;47353;51.614;5.530;2022-08-26T12:20:59;26.77;;;24.65;;
59788;SDS011;47353;51.614;5.530;2022-08-26T12:28:48;20.05;;;18.27;;
59788;SDS011;47353;51.614;5.530;2022-08-26T12:31:20;16.17;;;14.60;;
59788;SDS011;47353;51.614;5.530;2022-08-26T12:33:48;14.00;;;12.93;;
59788;SDS011;47353;51.614;5.530;2022-08-26T12:36:22;13.35;;;12.27;;
59788;SDS011;47353;51.614;5.530;2022-08-26T12:38:53;10.15;;;9.18;;
59788;SDS011;47353;51.614;5.530;2022-08-26T12:41:39;10.45;;;9.55;;
59788;SDS011;47353;51.614;5.530;2022-08-26T12:44:06;15.23;;;6.72;;
59788;SDS011;47353;51.614;5.530;2022-08-26T12:46:32;9.65;;;6.50;;
59788;SDS011;47353;51.614;5.530;2022-08-26T12:48:57;5.70;;;4.75;;
59788;SDS011;47353;51.614;5.530;2022-08-26T12:51:26;7.28;;;4.70;;
59788;SDS011;47353;51.614;5.530;2022-08-26T12:53:53;6.45;;;3.13;;
59788;SDS011;47353;51.614;5.530;2022-08-26T12:56:20;7.50;;;2.30;;
59788;SDS011;47353;51.614;5.530;2022-08-26T12:59:20;7.32;;;3.15;;
59788;SDS011;47353;51.614;5.530;2022-08-26T13:01:48;4.30;;;1.77;;
59788;SDS011;47353;51.614;5.530;2022-08-26T13:09:53;6.97;;;1.63;;
59788;SDS011;47353;51.614;5.530;2022-08-26T13:14:57;7.40;;;1.60;;
59788;SDS011;47353;51.614;5.530;2022-08-26T13:17:24;7.07;;;2.13;;
59788;SDS011;47353;51.614;5.530;2022-08-26T13:19:51;6.32;;;1.45;;
59788;SDS011;47353;51.614;5.530;2022-08-26T13:22:16;3.58;;;1.27;;
59788;SDS011;47353;51.614;5.530;2022-08-26T13:24:46;9.32;;;1.67;;
59788;SDS011;47353;51.614;5.530;2022-08-26T13:27:13;7.38;;;1.70;;
59788;SDS011;47353;51.614;5.530;2022-08-26T13:29:39;4.97;;;1.20;;
59788;SDS011;47353;51.614;5.530;2022-08-26T13:32:05;7.13;;;1.30;;
59788;SDS011;47353;51.614;5.530;2022-08-26T13:34:31;5.18;;;1.08;;
59788;SDS011;47353;51.614;5.530;2022-08-26T13:36:58;4.45;;;1.10;;
59788;SDS011;47353;51.614;5.530;2022-08-26T13:39:25;2.50;;;0.93;;
59788;SDS011;47353;51.614;5.530;2022-08-26T13:41:51;4.47;;;0.98;;
59788;SDS011;47353;51.614;5.530;2022-08-26T13:44:17;3.75;;;1.00;;
59788;SDS011;47353;51.614;5.530;2022-08-26T13:46:43;6.35;;;1.20;;
59788;SDS011;47353;51.614;5.530;2022-08-26T13:49:08;2.42;;;0.70;;
59788;SDS011;47353;51.614;5.530;2022-08-26T13:51:35;5.57;;;1.15;;
59788;SDS011;47353;51.614;5.530;2022-08-26T13:54:01;3.50;;;0.80;;
59788;SDS011;47353;51.614;5.530;2022-08-26T13:56:29;3.78;;;1.00;;
59788;SDS011;47353;51.614;5.530;2022-08-26T13:58:57;2.63;;;0.90;;
59788;SDS011;47353;51.614;5.530;2022-08-26T14:01:25;4.22;;;1.05;;
59788;SDS011;47353;51.614;5.530;2022-08-26T14:03:52;2.88;;;0.85;;
59788;SDS011;47353;51.614;5.530;2022-08-26T14:06:17;3.72;;;0.93;;
59788;SDS011;47353;51.614;5.530;2022-08-26T14:08:43;4.30;;;0.90;;
59788;SDS011;47353;51.614;5.530;2022-08-26T14:11:09;8.57;;;1.27;;
59788;SDS011;47353;51.614;5.530;2022-08-26T14:13:35;4.43;;;0.90;;
59788;SDS011;47353;51.614;5.530;2022-08-26T14:16:00;4.13;;;1.00;;
59788;SDS011;47353;51.614;5.530;2022-08-26T14:18:31;4.50;;;1.10;;
59788;SDS011;47353;51.614;5.530;2022-08-26T14:20:59;4.90;;;1.20;;
59788;SDS011;47353;51.614;5.530;2022-08-26T14:23:25;2.85;;;1.20;;
59788;SDS011;47353;51.614;5.530;2022-08-26T14:25:51;6.68;;;1.10;;
59788;SDS011;47353;51.614;5.530;2022-08-26T14:28:17;3.53;;;1.20;;
59788;SDS011;47353;51.614;5.530;2022-08-26T14:30:43;8.85;;;1.48;;
59788;SDS011;47353;51.614;5.530;2022-08-26T14:33:12;8.40;;;1.50;;
59788;SDS011;47353;51.614;5.530;2022-08-26T14:35:39;6.68;;;1.63;;
59788;SDS011;47353;51.614;5.530;2022-08-26T14:38:04;8.40;;;1.80;;
59788;SDS011;47353;51.614;5.530;2022-08-26T14:40:30;5.18;;;1.67;;
59788;SDS011;47353;51.614;5.530;2022-08-26T14:42:57;6.20;;;1.42;;
59788;SDS011;47353;51.614;5.530;2022-08-26T14:45:24;5.40;;;1.40;;
59788;SDS011;47353;51.614;5.530;2022-08-26T14:47:51;6.55;;;1.42;;
59788;SDS011;47353;51.614;5.530;2022-08-26T14:50:20;7.05;;;1.45;;
59788;SDS011;47353;51.614;5.530;2022-08-26T14:52:48;6.07;;;1.50;;
59788;SDS011;47353;51.614;5.530;2022-08-26T14:55:33;4.82;;;1.30;;
59788;SDS011;47353;51.614;5.530;2022-08-26T14:58:01;5.47;;;1.73;;
59788;SDS011;47353;51.614;5.530;2022-08-26T15:00:27;5.93;;;1.88;;
59788;SDS011;47353;51.614;5.530;2022-08-26T15:02:52;3.80;;;1.50;;
59788;SDS011;47353;51.614;5.530;2022-08-26T15:05:18;2.60;;;1.20;;
59788;SDS011;47353;51.614;5.530;2022-08-26T15:07:44;5.18;;;1.40;;
59788;SDS011;47353;51.614;5.530;2022-08-26T15:10:11;5.25;;;1.00;;
59788;SDS011;47353;51.614;5.530;2022-08-26T15:12:38;5.03;;;1.38;;
59788;SDS011;47353;51.614;5.530;2022-08-26T15:15:05;3.97;;;1.08;;
59788;SDS011;47353;51.614;5.530;2022-08-26T15:17:32;6.25;;;1.45;;
59788;SDS011;47353;51.614;5.530;2022-08-26T15:19:58;2.88;;;1.10;;
59788;SDS011;47353;51.614;5.530;2022-08-26T15:22:24;2.55;;;1.17;;
59788;SDS011;47353;51.614;5.530;2022-08-26T15:24:50;4.70;;;1.40;;
59788;SDS011;47353;51.614;5.530;2022-08-26T15:27:16;3.40;;;1.52;;
59788;SDS011;47353;51.614;5.530;2022-08-26T15:29:42;6.10;;;1.70;;
59788;SDS011;47353;51.614;5.530;2022-08-26T15:32:07;4.68;;;1.60;;
59788;SDS011;47353;51.614;5.530;2022-08-26T15:34:33;5.20;;;1.38;;
59788;SDS011;47353;51.614;5.530;2022-08-26T15:36:58;4.30;;;1.45;;
59788;SDS011;47353;51.614;5.530;2022-08-26T15:39:24;4.95;;;1.40;;
59788;SDS011;47353;51.614;5.530;2022-08-26T15:41:49;4.13;;;1.50;;
59788;SDS011;47353;51.614;5.530;2022-08-26T15:44:15;7.63;;;1.40;;
59788;SDS011;47353;51.614;5.530;2022-08-26T15:46:41;4.95;;;1.40;;
59788;SDS011;47353;51.614;5.530;2022-08-26T15:49:07;6.32;;;1.60;;
59788;SDS011;47353;51.614;5.530;2022-08-26T15:51:34;4.53;;;1.10;;
59788;SDS011;47353;51.614;5.530;2022-08-26T15:54:03;3.35;;;1.17;;
59788;SDS011;47353;51.614;5.530;2022-08-26T15:56:29;5.07;;;1.35;;
59788;SDS011;47353;51.614;5.530;2022-08-26T15:58:56;4.03;;;1.48;;
59788;SDS011;47353;51.614;5.530;2022-08-26T16:01:23;4.40;;;1.30;;
59788;SDS011;47353;51.614;5.530;2022-08-26T16:03:49;6.63;;;1.30;;
59788;SDS011;47353;51.614;5.530;2022-08-26T16:06:16;9.77;;;2.03;;